Time;durP1;ratioP1;P1;durP2;ratioP2;P2;SDS_P1;SDS_P2;PMS_P1;PMS_P2;Temp;Humidity;BMP_temperature;BMP_pressure;BME280_temperature;BME280_humidity;BME280_pressure;Samples;Min_cycle;Max_cycle;Signal;HPM_P1;HPM_P2
2021/06/19 00:01:37;;;;;;;14.28;10.28;;;;;;;21.80;52.76;100541.27;1750031;82;20995;-72
2021/06/19 00:04:04;;;;;;;14.38;9.80;;;;;;;21.76;52.81;100534.66;1750368;82;21042;-72
2021/06/19 00:06:30;;;;;;;14.20;9.70;;;;;;;21.73;52.90;100532.44;1750265;82;21503;-72
2021/06/19 00:08:56;;;;;;;12.40;9.65;;;;;;;21.71;52.98;100530.50;1750229;81;21734;-71
2021/06/19 00:11:22;;;;;;;10.10;8.98;;;;;;;21.72;53.05;100536.20;1750173;81;21011;-72
2021/06/19 00:13:48;;;;;;;15.03;10.40;;;;;;;21.73;53.12;100537.86;1750120;82;21022;-72
2021/06/19 00:16:14;;;;;;;12.40;10.00;;;;;;;21.74;53.15;100533.53;1750228;82;21002;-72
2021/06/19 00:18:40;;;;;;;11.90;9.85;;;;;;;21.74;53.20;100533.53;1750205;81;21026;-72
2021/06/19 00:21:06;;;;;;;13.53;9.83;;;;;;;21.74;53.24;100533.53;1750257;81;21120;-72
2021/06/19 00:23:32;;;;;;;15.95;10.20;;;;;;;21.71;53.31;100530.50;1750003;82;21023;-72
2021/06/19 00:25:58;;;;;;;11.70;9.73;;;;;;;21.66;53.39;100533.09;1750132;82;21613;-72
2021/06/19 00:28:24;;;;;;;15.65;9.40;;;;;;;21.63;53.47;100539.01;1750147;82;20984;-72
2021/06/19 00:30:51;;;;;;;11.40;9.90;;;;;;;21.60;53.55;100538.13;1749861;81;21058;-72
2021/06/19 00:33:17;;;;;;;12.88;10.55;;;;;;;21.56;53.65;100543.73;1750042;82;21142;-72
2021/06/19 00:35:43;;;;;;;17.00;10.70;;;;;;;21.52;53.73;100535.25;1750245;81;20979;-72
2021/06/19 00:38:09;;;;;;;14.50;10.23;;;;;;;21.51;53.81;100536.83;1750359;82;21490;-72
2021/06/19 00:40:35;;;;;;;17.67;10.68;;;;;;;21.48;53.89;100538.14;1720707;82;21439;-72
2021/06/19 00:43:03;;;;;;;13.48;9.78;;;;;;;21.46;53.97;100540.80;1750390;82;20991;-72
2021/06/19 00:45:37;;;;;;;13.85;10.25;;;;;;;21.45;54.03;100542.69;1749732;81;21124;-72
2021/06/19 00:48:09;;;;;;;16.35;10.98;;;;;;;21.40;54.09;100546.11;1750083;82;21496;-72
2021/06/19 00:50:35;;;;;;;13.85;10.13;;;;;;;21.34;54.18;100541.63;1750277;81;20998;-72
2021/06/19 00:53:01;;;;;;;14.87;10.30;;;;;;;21.29;54.28;100548.28;1749790;81;20987;-72
2021/06/19 00:55:27;;;;;;;13.98;11.40;;;;;;;21.24;54.39;100546.83;1750331;82;21042;-72
2021/06/19 00:57:53;;;;;;;14.05;10.55;;;;;;;21.21;54.47;100544.59;1750249;81;21340;-72
2021/06/19 01:00:21;;;;;;;16.37;11.12;;;;;;;21.17;54.57;100540.70;1750194;81;21002;-72
2021/06/19 01:02:47;;;;;;;14.95;11.43;;;;;;;21.15;54.67;100545.52;1750139;82;21011;-72
2021/06/19 01:05:14;;;;;;;13.93;10.95;;;;;;;21.12;54.77;100539.20;1750233;82;21006;-72
2021/06/19 01:07:40;;;;;;;14.47;11.53;;;;;;;21.10;54.86;100535.92;1750025;82;20991;-72
2021/06/19 01:10:07;;;;;;;15.38;11.03;;;;;;;21.07;54.92;100537.72;1750407;82;21483;-72
2021/06/19 01:12:33;;;;;;;11.95;10.63;;;;;;;21.04;55.04;100536.80;1750249;82;20971;-72
2021/06/19 01:14:59;;;;;;;13.60;11.55;;;;;;;21.03;55.13;100537.05;1749800;82;21126;-72
2021/06/19 01:17:25;;;;;;;12.25;10.20;;;;;;;21.02;55.18;100538.94;1750063;82;21023;-72
2021/06/19 01:20:08;;;;;;;16.85;11.08;;;;;;;20.99;55.27;100540.77;1749836;81;21055;-72
2021/06/19 01:22:35;;;;;;;13.85;11.75;;;;;;;20.98;55.35;100539.63;1750008;81;21570;-72
2021/06/19 01:25:06;;;;;;;16.32;11.57;;;;;;;20.96;55.43;100544.48;1750124;82;21003;-72
2021/06/19 01:27:32;;;;;;;16.55;11.30;;;;;;;20.91;55.51;100539.22;1750067;82;21448;-72
2021/06/19 01:29:58;;;;;;;15.28;11.68;;;;;;;20.89;55.60;100544.06;1750067;82;21039;-72
2021/06/19 01:32:30;;;;;;;14.75;11.95;;;;;;;20.86;55.67;100542.35;1750041;82;21030;-72
2021/06/19 01:34:56;;;;;;;14.05;11.75;;;;;;;20.83;55.76;100548.21;1719970;82;21488;-72
2021/06/19 01:37:22;;;;;;;17.48;11.83;;;;;;;20.79;55.88;100542.98;1749761;82;21022;-72
2021/06/19 01:39:48;;;;;;;12.85;10.82;;;;;;;20.75;55.96;100543.15;1750229;82;20998;-72
2021/06/19 01:42:14;;;;;;;13.58;12.03;;;;;;;20.73;56.05;100537.12;1750252;82;20999;-72
2021/06/19 01:44:40;;;;;;;15.93;11.60;;;;;;;20.70;56.14;100543.01;1750063;82;21011;-72
2021/06/19 01:47:07;;;;;;;14.70;12.28;;;;;;;20.66;56.24;100537.75;1749847;82;48622;-72
2021/06/19 01:49:34;;;;;;;14.25;11.65;;;;;;;20.63;56.31;100542.28;1750221;82;20987;-72
2021/06/19 01:52:01;;;;;;;15.72;12.05;;;;;;;20.59;56.42;100545.16;1754626;81;21035;-72
2021/06/19 01:54:27;;;;;;;18.07;12.20;;;;;;;20.59;56.51;100547.87;1761389;81;20986;-72
2021/06/19 01:56:53;;;;;;;14.33;12.28;;;;;;;20.57;56.58;100547.28;1761880;81;20967;-72
2021/06/19 01:59:19;;;;;;;15.08;12.50;;;;;;;20.53;56.68;100540.67;1761619;81;21472;-72
2021/06/19 02:01:45;;;;;;;14.03;11.90;;;;;;;20.49;56.76;100544.89;1761361;81;21589;-72
2021/06/19 02:04:11;;;;;;;20.00;12.60;;;;;;;20.48;56.87;100540.55;1761540;81;20990;-72
2021/06/19 02:06:37;;;;;;;15.78;11.73;;;;;;;20.47;56.94;100542.95;1761777;81;21003;-72
2021/06/19 02:09:08;;;;;;;18.12;12.47;;;;;;;20.47;57.01;100541.60;1761720;81;21026;-72
2021/06/19 02:11:35;;;;;;;16.27;11.83;;;;;;;20.46;57.07;100538.59;1761672;81;21671;-72
2021/06/19 02:14:03;;;;;;;13.78;12.18;;;;;;;20.42;57.13;100540.41;1761893;81;21003;-72
2021/06/19 02:16:29;;;;;;;14.75;12.28;;;;;;;20.38;57.22;100532.44;1761588;81;21003;-72
2021/06/19 02:18:55;;;;;;;15.68;12.63;;;;;;;20.37;57.31;100536.75;1761592;81;21105;-72
2021/06/19 02:21:21;;;;;;;13.58;11.88;;;;;;;20.35;57.38;100539.67;1761788;81;21046;-71
2021/06/19 02:23:48;;;;;;;19.55;11.73;;;;;;;20.32;57.44;100533.37;1761629;81;21081;-72
2021/06/19 02:26:14;;;;;;;17.73;11.83;;;;;;;20.30;57.50;100536.02;1761523;81;21429;-72
2021/06/19 02:28:40;;;;;;;17.00;12.10;;;;;;;20.27;57.59;100532.36;1761458;81;20990;-72
2021/06/19 02:31:06;;;;;;;14.05;11.75;;;;;;;20.25;57.68;100533.95;1761577;81;21007;-72
2021/06/19 02:33:33;;;;;;;15.78;12.63;;;;;;;20.23;57.78;100533.90;1761609;81;21075;-72
2021/06/19 02:35:59;;;;;;;15.55;12.28;;;;;;;20.21;57.85;100527.34;1761793;81;21139;-72
2021/06/19 02:38:25;;;;;;;17.07;13.50;;;;;;;20.20;57.92;100529.74;1761618;81;21002;-72
2021/06/19 02:40:51;;;;;;;15.58;13.28;;;;;;;20.17;57.97;100526.14;1761546;80;21023;-72
2021/06/19 02:43:18;;;;;;;17.48;13.22;;;;;;;20.12;58.05;100530.08;1761504;81;20995;-72
2021/06/19 02:45:44;;;;;;;15.25;12.78;;;;;;;20.11;58.14;100535.19;1761572;80;20978;-72
2021/06/19 02:48:10;;;;;;;20.75;13.32;;;;;;;20.10;58.23;100533.53;1761859;81;21170;-72
2021/06/19 02:50:39;;;;;;;15.60;13.08;;;;;;;20.08;58.32;100541.07;1761524;81;20986;-72
2021/06/19 02:53:06;;;;;;;17.53;12.63;;;;;;;20.06;58.39;100541.80;1762058;81;21554;-72
2021/06/19 02:55:36;;;;;;;17.67;13.30;;;;;;;20.07;58.46;100544.82;1761834;81;21562;-72
2021/06/19 02:58:05;;;;;;;14.87;12.70;;;;;;;20.10;58.55;100540.30;1761859;81;21006;-72
2021/06/19 03:00:31;;;;;;;15.20;13.38;;;;;;;20.13;58.60;100534.95;1761216;81;21196;-72
2021/06/19 03:02:57;;;;;;;18.00;13.38;;;;;;;20.17;58.64;100542.39;1761698;81;20995;-72
2021/06/19 03:05:25;;;;;;;15.40;12.23;;;;;;;20.20;58.69;100535.69;1761910;81;21585;-72
2021/06/19 03:07:52;;;;;;;17.32;12.37;;;;;;;20.24;58.72;100533.66;1761665;81;20986;-72
2021/06/19 03:10:24;;;;;;;16.52;12.47;;;;;;;20.27;58.72;100545.41;1761963;81;21522;-72
2021/06/19 03:12:50;;;;;;;15.72;12.50;;;;;;;20.28;58.77;100542.17;1761840;81;21494;-72
2021/06/19 03:15:17;;;;;;;15.28;13.53;;;;;;;20.29;58.78;100546.02;1761634;81;20999;-72
2021/06/19 03:17:43;;;;;;;19.10;13.53;;;;;;;20.30;58.81;100541.44;1760642;81;21038;-72
2021/06/19 03:20:11;;;;;;;15.00;13.40;;;;;;;20.29;58.84;100539.25;1761255;80;21074;-72
2021/06/19 03:22:46;;;;;;;15.83;14.07;;;;;;;20.31;58.89;100547.95;1761917;80;21046;-72
2021/06/19 03:25:19;;;;;;;16.67;13.60;;;;;;;20.47;59.05;100546.50;1761833;80;21115;-72
2021/06/19 03:27:45;;;;;;;15.45;12.63;;;;;;;20.94;59.10;100538.75;1761332;80;21026;-72
2021/06/19 03:30:12;;;;;;;20.12;12.80;;;;;;;21.77;58.94;100536.33;1761590;81;20978;-72
2021/06/19 03:32:39;;;;;;;16.75;12.35;;;;;;;22.65;58.43;100543.50;1761753;81;21011;-72
2021/06/19 03:35:06;;;;;;;12.30;10.93;;;;;;;23.53;57.75;100539.22;1761479;80;21055;-72
2021/06/19 03:37:32;;;;;;;15.55;12.23;;;;;;;24.32;57.01;100535.02;1761526;80;21511;-73
2021/06/19 03:39:58;;;;;;;14.18;11.85;;;;;;;24.88;56.23;100537.76;1761527;80;20978;-72
2021/06/19 03:42:24;;;;;;;14.50;11.05;;;;;;;25.52;55.38;100537.69;1761299;80;21033;-73
2021/06/19 03:44:51;;;;;;;11.73;10.00;;;;;;;25.96;54.53;100534.08;1760356;81;20983;-73
2021/06/19 03:47:17;;;;;;;13.22;10.25;;;;;;;26.32;53.68;100536.67;1761156;81;20978;-72
2021/06/19 03:49:43;;;;;;;11.33;9.85;;;;;;;26.64;52.77;100534.25;1761375;81;21924;-73
2021/06/19 03:52:09;;;;;;;12.73;10.00;;;;;;;27.04;51.87;100538.41;1720774;80;21448;-73
2021/06/19 03:54:37;;;;;;;11.12;10.03;;;;;;;27.47;50.90;100537.00;1744059;81;21483;-73
2021/06/19 03:57:05;;;;;;;12.58;9.58;;;;;;;27.83;50.04;100540.45;1746716;81;21024;-73
2021/06/19 03:59:32;;;;;;;10.72;9.65;;;;;;;28.10;49.30;100536.78;1758279;81;21418;-73
2021/06/19 04:01:58;;;;;;;11.60;10.18;;;;;;;28.29;48.54;100537.76;1758279;81;21962;-73
2021/06/19 04:04:24;;;;;;;12.70;9.75;;;;;;;28.76;47.78;100541.31;1758159;81;20985;-73
2021/06/19 04:06:50;;;;;;;10.63;9.40;;;;;;;29.09;46.79;100541.59;1757710;81;21014;-73
2021/06/19 04:09:17;;;;;;;11.95;9.25;;;;;;;28.85;46.06;100541.53;1740812;81;20995;-73
2021/06/19 04:11:43;;;;;;;12.15;9.88;;;;;;;28.70;45.56;100544.39;1758403;81;21534;-73
2021/06/19 04:14:09;;;;;;;16.15;9.33;;;;;;;28.91;44.98;100544.50;1747580;81;22578;-73
2021/06/19 04:16:36;;;;;;;11.00;9.38;;;;;;;29.11;44.50;100540.19;1757462;81;20963;-73
2021/06/19 04:19:03;;;;;;;13.32;9.13;;;;;;;29.22;43.89;100547.78;1758118;81;20986;-73
2021/06/19 04:21:29;;;;;;;10.32;8.98;;;;;;;29.12;43.65;100547.88;1758032;81;21010;-73
2021/06/19 04:23:55;;;;;;;12.13;9.43;;;;;;;29.10;43.34;100544.03;1757346;81;22146;-73
2021/06/19 04:26:21;;;;;;;10.40;8.75;;;;;;;29.35;42.63;100547.67;1746272;81;21758;-73
2021/06/19 04:28:47;;;;;;;9.98;8.95;;;;;;;29.39;42.25;100548.73;1698330;81;21018;-73
2021/06/19 04:31:13;;;;;;;13.40;9.50;;;;;;;28.95;42.32;100540.62;1728796;81;21031;-73
2021/06/19 04:33:40;;;;;;;10.88;8.55;;;;;;;28.50;42.80;100544.52;1726741;81;21369;-73
2021/06/19 04:36:08;;;;;;;12.37;9.13;;;;;;;28.37;43.09;100545.13;1728826;81;21015;-73
2021/06/19 04:38:34;;;;;;;11.22;8.80;;;;;;;28.34;43.23;100544.32;1737453;81;21831;-73
2021/06/19 04:41:07;;;;;;;10.60;9.03;;;;;;;28.23;43.35;100546.30;1732289;81;21041;-73
2021/06/19 04:43:40;;;;;;;11.25;9.00;;;;;;;28.18;43.42;100548.52;1752277;81;21054;-73
2021/06/19 04:45:58;;;;;;;11.22;8.58;;;;;;;28.14;43.49;100543.90;1744088;81;21533;-73
2021/06/19 04:48:24;;;;;;;13.98;9.18;;;;;;;27.96;43.46;100549.98;1755379;81;20907;-73
2021/06/19 04:50:52;;;;;;;16.27;9.10;;;;;;;27.91;43.59;100551.36;1728451;82;21869;-73
2021/06/19 04:53:18;;;;;;;11.75;9.03;;;;;;;28.02;43.59;100552.42;1727810;82;21034;-74
2021/06/19 04:55:44;;;;;;;11.33;8.73;;;;;;;28.12;43.53;100549.66;1757106;81;21503;-72
2021/06/19 04:58:10;;;;;;;10.30;9.30;;;;;;;28.36;43.53;100558.59;1754061;81;20942;-71
2021/06/19 05:00:36;;;;;;;11.95;9.28;;;;;;;28.38;43.35;100563.23;1756711;81;20989;-71
2021/06/19 05:03:03;;;;;;;13.83;9.20;;;;;;;28.31;43.36;100563.55;1758008;81;22529;-72
2021/06/19 05:05:29;;;;;;;12.53;9.23;;;;;;;28.26;43.28;100565.77;1725566;83;20999;-71
2021/06/19 05:07:56;;;;;;;10.78;8.70;;;;;;;28.39;43.32;100566.25;1753290;81;20991;-72
2021/06/19 05:10:22;;;;;;;10.35;8.83;;;;;;;28.18;43.21;100570.45;1757804;81;20981;-71
2021/06/19 05:12:48;;;;;;;10.13;8.95;;;;;;;28.02;43.19;100567.50;1748811;81;21483;-71
2021/06/19 05:15:18;;;;;;;13.53;9.20;;;;;;;27.96;43.29;100563.14;1726169;83;22579;-71
2021/06/19 05:17:44;;;;;;;9.90;8.63;;;;;;;28.07;43.37;100566.70;1747809;81;20991;-71
2021/06/19 05:20:11;;;;;;;9.93;8.90;;;;;;;28.17;43.32;100564.73;1726638;83;20999;-71
2021/06/19 05:22:37;;;;;;;11.00;8.98;;;;;;;28.22;43.19;100561.94;1726688;81;21010;-71
2021/06/19 05:25:05;;;;;;;14.53;8.90;;;;;;;28.04;43.10;100551.57;1729278;81;21700;-72
2021/06/19 05:27:31;;;;;;;10.78;8.48;;;;;;;28.06;43.18;100561.73;1757434;81;21710;-73
2021/06/19 05:29:57;;;;;;;9.88;8.88;;;;;;;28.12;43.20;100547.45;1754368;81;20990;-72
2021/06/19 05:32:24;;;;;;;11.00;8.73;;;;;;;28.10;43.19;100553.79;1736543;81;21025;-73
2021/06/19 05:34:50;;;;;;;16.12;10.28;;;;;;;28.18;43.23;100556.74;1695576;83;21044;-72
2021/06/19 05:37:17;;;;;;;14.40;8.83;;;;;;;28.35;43.16;100561.06;1716183;83;21488;-72
2021/06/19 05:39:43;;;;;;;9.78;8.75;;;;;;;28.55;43.05;100552.69;1756732;81;22519;-72
2021/06/19 05:42:10;;;;;;;13.05;8.40;;;;;;;28.55;42.77;100558.19;1756384;81;20978;-72
2021/06/19 05:44:36;;;;;;;11.20;7.58;;;;;;;28.60;42.77;100563.65;1756522;81;20937;-72
2021/06/19 05:47:02;;;;;;;9.55;8.35;;;;;;;28.81;42.72;100562.43;1702357;83;21042;-72
2021/06/19 05:49:28;;;;;;;15.03;9.23;;;;;;;28.74;42.53;100556.45;1726114;83;20977;-72
2021/06/19 05:51:54;;;;;;;10.05;8.30;;;;;;;28.78;42.55;100555.56;1743990;80;21823;-72
2021/06/19 05:54:20;;;;;;;9.78;8.03;;;;;;;28.73;42.39;100553.42;1760338;81;21057;-72
2021/06/19 05:56:46;;;;;;;8.40;7.60;;;;;;;28.75;42.37;100551.20;1761002;81;21044;-72
2021/06/19 05:59:12;;;;;;;10.25;7.80;;;;;;;28.90;42.34;100553.83;1760923;81;20993;-73
2021/06/19 06:01:38;;;;;;;9.78;7.70;;;;;;;29.00;42.15;100552.37;1760951;81;21041;-73
2021/06/19 06:04:05;;;;;;;8.95;7.72;;;;;;;29.02;41.99;100547.42;1761099;81;22012;-73
2021/06/19 06:06:31;;;;;;;11.18;7.40;;;;;;;29.12;41.82;100544.58;1760451;81;20993;-73
2021/06/19 06:08:57;;;;;;;12.28;7.45;;;;;;;29.37;41.79;100549.59;1760234;81;21005;-72
2021/06/19 06:11:23;;;;;;;10.98;7.85;;;;;;;29.33;41.46;100547.16;1760603;81;20982;-73
2021/06/19 06:13:49;;;;;;;10.23;7.28;;;;;;;29.36;41.58;100552.06;1760164;81;20989;-72
2021/06/19 06:16:15;;;;;;;7.65;6.80;;;;;;;29.46;41.42;100546.45;1761108;81;21657;-72
2021/06/19 06:18:41;;;;;;;10.05;7.25;;;;;;;29.44;41.18;100552.27;1760688;81;21005;-72
2021/06/19 06:21:07;;;;;;;8.45;6.67;;;;;;;29.51;40.99;100552.73;1759520;81;21029;-73
2021/06/19 06:23:33;;;;;;;8.28;6.47;;;;;;;29.56;40.89;100549.09;1759434;81;21500;-72
2021/06/19 06:26:01;;;;;;;11.15;7.05;;;;;;;29.57;40.60;100547.99;1759660;81;20926;-73
2021/06/19 06:28:27;;;;;;;9.40;6.92;;;;;;;29.52;40.39;100548.06;1759543;81;21826;-72
2021/06/19 06:30:53;;;;;;;7.62;6.85;;;;;;;29.58;40.35;100542.77;1759657;81;21444;-72
2021/06/19 06:33:22;;;;;;;8.13;6.97;;;;;;;29.80;40.28;100539.49;1761348;81;21410;-73
2021/06/19 06:35:47;;;;;;;9.13;7.37;;;;;;;30.00;40.20;100548.89;1726996;83;21033;-72
2021/06/19 06:38:14;;;;;;;10.35;7.00;;;;;;;30.13;40.04;100550.91;1700537;84;21576;-72
2021/06/19 06:40:40;;;;;;;8.25;7.45;;;;;;;30.33;39.97;100542.94;1701709;84;22639;-72
2021/06/19 06:43:06;;;;;;;11.95;6.37;;;;;;;30.51;39.82;100544.33;1709785;83;21014;-72
2021/06/19 06:45:32;;;;;;;7.97;7.17;;;;;;;30.59;39.63;100546.41;1710051;83;21014;-72
2021/06/19 06:47:58;;;;;;;8.60;7.30;;;;;;;30.63;39.40;100547.45;1710088;84;21383;-72
2021/06/19 06:50:26;;;;;;;7.67;6.87;;;;;;;30.83;39.45;100550.44;1710130;83;21067;-72
2021/06/19 06:52:53;;;;;;;10.13;6.60;;;;;;;30.99;39.35;100554.62;1713633;81;22503;-73
2021/06/19 06:55:19;;;;;;;8.13;6.45;;;;;;;30.81;39.04;100561.50;1726480;83;20965;-72
2021/06/19 06:57:45;;;;;;;6.90;6.20;;;;;;;30.79;39.04;100556.86;1758359;81;20993;-72
2021/06/19 07:00:12;;;;;;;8.18;6.67;;;;;;;30.76;39.06;100557.44;1726753;83;21059;-72
2021/06/19 07:02:41;;;;;;;8.43;6.62;;;;;;;30.83;38.89;100550.44;1758631;81;21049;-72
2021/06/19 07:05:09;;;;;;;10.98;6.80;;;;;;;30.95;38.79;100551.34;1725162;83;21866;-72
2021/06/19 07:07:36;;;;;;;8.85;6.55;;;;;;;31.07;38.67;100547.02;1732710;81;21496;-72
2021/06/19 07:10:08;;;;;;;6.58;5.97;;;;;;;31.28;38.63;100548.05;1720355;81;20986;-72
2021/06/19 07:12:41;;;;;;;7.15;5.70;;;;;;;31.51;38.52;100551.19;1758517;80;21102;-72
2021/06/19 07:15:07;;;;;;;10.20;5.80;;;;;;;31.63;38.32;100552.93;1754626;81;21063;-72
2021/06/19 07:17:33;;;;;;;8.03;5.87;;;;;;;31.69;38.11;100547.55;1774762;80;21833;-72
2021/06/19 07:20:01;;;;;;;8.75;5.67;;;;;;;31.80;37.92;100540.72;1772048;80;21520;-72
2021/06/19 07:22:27;;;;;;;6.47;5.45;;;;;;;31.76;37.57;100541.07;1768214;80;21057;-72
2021/06/19 07:24:53;;;;;;;7.83;6.45;;;;;;;31.80;37.40;100536.58;1772092;80;21026;-72
2021/06/19 07:27:19;;;;;;;7.12;6.25;;;;;;;31.82;37.05;100541.21;1771103;80;20988;-72
2021/06/19 07:29:45;;;;;;;10.32;6.40;;;;;;;31.72;37.10;100540.05;1752914;79;21862;-72
2021/06/19 07:32:11;;;;;;;7.45;5.87;;;;;;;31.87;37.06;100535.60;1755568;80;21027;-72
2021/06/19 07:34:37;;;;;;;7.35;6.00;;;;;;;32.03;37.02;100537.45;1785969;80;20987;-72
2021/06/19 07:37:03;;;;;;;6.20;5.53;;;;;;;32.15;37.03;100539.98;1733388;79;21005;-72
2021/06/19 07:39:29;;;;;;;9.35;5.42;;;;;;;32.39;36.97;100541.09;1694668;84;21063;-72
2021/06/19 07:41:57;;;;;;;6.05;4.95;;;;;;;32.57;36.53;100535.16;1694898;84;21510;-72
2021/06/19 07:44:24;;;;;;;6.87;4.45;;;;;;;32.73;36.32;100537.82;1691519;84;21022;-72
2021/06/19 07:46:50;;;;;;;5.85;5.17;;;;;;;32.83;36.01;100532.63;1724000;82;21005;-73
2021/06/19 07:49:19;;;;;;;6.25;4.97;;;;;;;32.55;35.48;100529.93;1694644;84;21447;-72
2021/06/19 07:51:46;;;;;;;6.33;4.12;;;;;;;32.49;35.29;100533.13;1694979;84;21038;-72
2021/06/19 07:54:12;;;;;;;7.37;4.12;;;;;;;32.40;35.15;100536.39;1691381;84;22849;-72
2021/06/19 07:56:38;;;;;;;5.47;4.78;;;;;;;32.47;35.17;100529.88;1739439;80;20958;-72
2021/06/19 07:59:04;;;;;;;6.70;4.67;;;;;;;32.63;35.01;100535.31;1761197;80;21061;-72
2021/06/19 08:01:30;;;;;;;9.45;4.40;;;;;;;32.81;34.89;100532.93;1725180;82;21468;-72
2021/06/19 08:03:56;;;;;;;6.62;4.03;;;;;;;32.99;34.70;100533.30;1737315;81;20927;-72
2021/06/19 08:06:22;;;;;;;7.28;4.17;;;;;;;32.96;34.32;100529.79;1755212;81;21753;-72
2021/06/19 08:08:48;;;;;;;4.20;3.47;;;;;;;33.03;34.28;100526.02;1753707;81;21093;-72
2021/06/19 08:11:14;;;;;;;5.30;3.25;;;;;;;32.99;34.06;100529.16;1729899;81;21061;-72
2021/06/19 08:13:41;;;;;;;7.80;4.33;;;;;;;33.12;33.83;100526.90;1737447;80;21069;-73
2021/06/19 08:16:09;;;;;;;5.53;4.28;;;;;;;33.08;33.29;100520.34;1788691;80;20982;-72
2021/06/19 08:18:35;;;;;;;4.30;3.63;;;;;;;33.31;33.09;100507.89;1788156;80;21839;-72
2021/06/19 08:21:01;;;;;;;6.62;3.80;;;;;;;33.31;33.09;100507.89;1774439;79;21504;-72
2021/06/19 08:23:28;;;;;;;5.60;4.28;;;;;;;33.54;32.90;100530.18;1757509;80;21519;-72
2021/06/19 08:25:54;;;;;;;27.02;4.97;;;;;;;33.65;32.62;100534.33;1762994;80;20987;-73
2021/06/19 08:28:20;;;;;;;9.05;4.50;;;;;;;33.53;32.05;100534.89;1788335;80;21019;-72
2021/06/19 08:30:46;;;;;;;7.97;4.78;;;;;;;33.09;32.15;100533.03;1775944;80;21948;-72
2021/06/19 08:33:12;;;;;;;10.72;3.87;;;;;;;33.28;32.53;100532.03;1727811;80;21423;-73
2021/06/19 08:35:38;;;;;;;5.50;3.45;;;;;;;33.61;32.52;100529.15;1726520;82;21012;-72
2021/06/19 08:38:04;;;;;;;4.65;4.08;;;;;;;33.70;32.26;100532.81;1726482;82;21031;-72
2021/06/19 08:40:31;;;;;;;7.97;3.45;;;;;;;33.77;31.94;100524.86;1726190;82;21038;-72
2021/06/19 08:42:57;;;;;;;3.67;3.37;;;;;;;33.82;31.68;100528.84;1726218;83;22083;-73
2021/06/19 08:45:24;;;;;;;5.70;4.40;;;;;;;33.71;31.36;100535.02;1726140;81;21495;-73
2021/06/19 08:47:50;;;;;;;19.05;5.45;;;;;;;33.74;31.33;100531.03;1726462;83;21085;-72
2021/06/19 08:50:16;;;;;;;5.10;3.95;;;;;;;33.77;31.21;100524.03;1726306;82;20998;-72
2021/06/19 08:52:43;;;;;;;7.05;4.00;;;;;;;33.87;31.28;100519.02;1726430;82;21090;-72
2021/06/19 08:55:13;;;;;;;5.12;4.53;;;;;;;33.96;31.27;100514.30;1726079;82;22983;-72
2021/06/19 08:57:39;;;;;;;9.30;5.20;;;;;;;33.82;31.19;100513.62;1726227;83;21037;-72
2021/06/19 09:00:07;;;;;;;8.80;4.95;;;;;;;33.88;31.35;100504.61;1726557;82;21415;-72
2021/06/19 09:02:33;;;;;;;9.78;4.37;;;;;;;34.01;31.50;100507.23;1726363;82;20990;-72
2021/06/19 09:05:08;;;;;;;13.45;5.20;;;;;;;33.74;31.25;100508.90;1726487;81;21428;-72
2021/06/19 09:07:46;;;;;;;6.90;4.30;;;;;;;33.38;30.95;100506.86;1726531;82;22453;-72
2021/06/19 09:10:31;;;;;;;8.93;4.50;;;;;;;33.14;31.08;100499.73;1726672;82;20999;-72
2021/06/19 09:13:22;;;;;;;5.95;4.75;;;;;;;32.94;31.06;100503.02;1726525;82;20998;-72
2021/06/19 09:15:54;;;;;;;5.83;4.40;;;;;;;32.76;31.03;100497.13;1726375;83;20982;-72
2021/06/19 09:18:26;;;;;;;11.08;5.20;;;;;;;32.62;31.06;100500.52;1709867;83;21596;-72
2021/06/19 09:20:59;;;;;;;5.72;4.35;;;;;;;32.62;31.08;100504.66;1726497;83;21503;-72
2021/06/19 09:23:37;;;;;;;5.12;4.62;;;;;;;32.53;31.19;100501.00;1725937;82;20995;-72
2021/06/19 09:26:27;;;;;;;7.58;5.22;;;;;;;32.50;31.28;100491.41;1726362;83;21003;-72
2021/06/19 09:29:11;;;;;;;5.95;5.00;;;;;;;32.64;31.34;100501.04;1725888;83;21010;-72
2021/06/19 09:31:51;;;;;;;9.75;4.50;;;;;;;32.76;31.33;100492.19;1726419;82;21011;-72
2021/06/19 09:34:23;;;;;;;6.25;5.42;;;;;;;33.06;31.47;100492.20;1726323;83;21831;-72
2021/06/19 09:36:58;;;;;;;5.28;4.72;;;;;;;33.23;31.47;100496.20;1726261;82;21046;-72
2021/06/19 09:39:28;;;;;;;6.90;5.10;;;;;;;33.36;31.32;100503.58;1726427;82;21010;-72
2021/06/19 09:41:58;;;;;;;16.17;5.30;;;;;;;33.04;30.77;100495.84;1726449;83;21018;-72
2021/06/19 09:44:49;;;;;;;7.83;5.53;;;;;;;32.96;30.87;100504.91;1725297;82;21509;-72
2021/06/19 09:47:20;;;;;;;9.33;5.28;;;;;;;33.04;30.70;100501.95;1726465;83;22591;-72
2021/06/19 09:49:47;;;;;;;6.70;4.87;;;;;;;32.88;30.70;100494.62;1726460;81;21665;-72
2021/06/19 09:52:14;;;;;;;5.95;5.17;;;;;;;33.17;30.72;100486.43;1726443;83;21026;-72
2021/06/19 09:54:43;;;;;;;7.30;5.15;;;;;;;32.95;30.28;100492.22;1721447;83;21002;-72
2021/06/19 09:57:18;;;;;;;6.40;5.55;;;;;;;32.79;30.22;100489.61;1718447;83;21059;-72
2021/06/19 09:59:44;;;;;;;6.70;5.50;;;;;;;32.92;30.32;100490.09;1718265;83;21913;-72
2021/06/19 10:02:28;;;;;;;8.10;5.78;;;;;;;32.99;30.34;100484.11;1718257;83;21427;-72
2021/06/19 10:04:56;;;;;;;7.12;5.78;;;;;;;33.02;30.29;100489.82;1718465;83;21506;-72
2021/06/19 10:07:28;;;;;;;6.28;5.65;;;;;;;32.97;30.29;100481.66;1718174;83;20991;-72
2021/06/19 10:09:56;;;;;;;10.25;5.28;;;;;;;32.93;30.33;100482.62;1718306;83;21016;-72
2021/06/19 10:12:28;;;;;;;6.67;4.72;;;;;;;33.07;30.47;100488.31;1718500;83;21963;-72
2021/06/19 10:15:09;;;;;;;6.62;5.35;;;;;;;33.10;30.37;100478.56;1719425;83;21027;-72
2021/06/19 10:17:37;;;;;;;5.50;5.00;;;;;;;33.06;30.10;100472.03;1719448;83;21018;-72
2021/06/19 10:20:13;;;;;;;6.60;5.42;;;;;;;33.00;30.14;100467.22;1727160;83;21010;-72
2021/06/19 10:22:40;;;;;;;7.75;4.55;;;;;;;33.09;30.11;100467.25;1726948;83;21010;-72
2021/06/19 10:25:10;;;;;;;7.17;5.28;;;;;;;33.21;30.17;100463.36;1726645;83;22529;-72
2021/06/19 10:27:40;;;;;;;8.28;5.67;;;;;;;33.14;30.16;100465.18;1726771;83;21070;-72
2021/06/19 10:30:07;;;;;;;12.80;5.50;;;;;;;33.14;30.37;100476.23;1722425;82;21007;-72
2021/06/19 10:32:46;;;;;;;10.65;5.22;;;;;;;33.41;30.55;100458.64;1726839;83;21050;-72
2021/06/19 10:35:16;;;;;;;5.30;4.72;;;;;;;33.64;30.50;100464.91;1726873;83;21044;-72
2021/06/19 10:37:43;;;;;;;7.87;5.72;;;;;;;33.66;30.45;100459.88;1726764;83;21702;-72
2021/06/19 10:40:27;;;;;;;6.08;5.00;;;;;;;33.58;30.22;100463.40;1726883;83;21026;-72
2021/06/19 10:42:56;;;;;;;6.97;5.45;;;;;;;33.37;30.02;100465.94;1733032;81;21014;-72
2021/06/19 10:45:28;;;;;;;6.20;4.60;;;;;;;33.41;30.15;100456.44;1735139;82;21014;-72
2021/06/19 10:48:08;;;;;;;8.03;5.40;;;;;;;33.35;30.01;100468.78;1734601;82;21036;-72
2021/06/19 10:50:36;;;;;;;4.97;4.53;;;;;;;33.30;30.06;100466.15;1732139;82;21860;-72
2021/06/19 10:53:13;;;;;;;9.70;4.97;;;;;;;33.27;30.01;100460.70;1732296;82;20924;-72
2021/06/19 10:55:52;;;;;;;5.83;5.05;;;;;;;33.39;30.16;100460.89;1747234;81;21053;-72
2021/06/19 10:58:30;;;;;;;;;;;;;;;33.44;30.03;100459.94;1757095;81;20979;-72
2021/06/19 11:00:57;;;;;;;8.28;4.75;;;;;;;33.25;29.84;100445.57;1756873;81;20198;-72
2021/06/19 11:03:49;;;;;;;6.08;4.95;;;;;;;33.25;29.84;100445.57;1758396;81;21818;-72
2021/06/19 11:06:23;;;;;;;5.05;4.28;;;;;;;33.26;29.77;100440.27;1750089;81;21134;-72
2021/06/19 11:09:15;;;;;;;10.50;4.37;;;;;;;33.32;29.70;100433.48;1755041;81;21089;-72
2021/06/19 11:12:02;;;;;;;10.28;5.22;;;;;;;33.22;29.61;100444.80;1756781;81;21070;-72
2021/06/19 11:14:46;;;;;;;8.28;5.22;;;;;;;33.22;29.62;100450.33;1756867;81;21042;-72
2021/06/19 11:17:33;;;;;;;10.23;5.00;;;;;;;33.20;29.71;100434.64;1756755;81;22498;-72
2021/06/19 11:20:06;;;;;;;9.15;5.08;;;;;;;33.35;29.70;100436.98;1756611;81;21045;-72
2021/06/19 11:22:40;;;;;;;8.70;5.83;;;;;;;33.54;29.85;100436.13;1756844;81;21054;-72
2021/06/19 11:25:37;;;;;;;6.78;5.22;;;;;;;33.94;29.96;100429.40;1756885;81;20983;-72